createdAt,value
2019-05-26T00:01:31.530Z,101434.94
2019-05-26T00:04:00.437Z,101430.59
2019-05-26T00:17:45.572Z,101423.06
2019-05-26T00:20:15.053Z,101417.17
2019-05-26T00:22:43.841Z,101410.79
2019-05-26T00:25:14.014Z,101415.22
2019-05-26T00:27:42.876Z,101409.08
2019-05-26T00:30:13.061Z,101406.97
2019-05-26T00:32:41.855Z,101404.64
2019-05-26T00:35:11.831Z,101394.00
2019-05-26T00:37:49.195Z,101394.93
2019-05-26T00:40:11.698Z,101390.14
2019-05-26T00:42:40.775Z,101387.59
2019-05-26T00:45:09.828Z,101390.06
2019-05-26T00:47:38.726Z,101382.52
2019-05-26T00:50:08.886Z,101376.16
2019-05-26T00:52:37.867Z,101378.64
2019-05-26T00:55:07.581Z,101371.41
2019-05-26T00:57:36.536Z,101377.86
2019-05-26T01:00:06.053Z,101366.54
2019-05-26T01:02:35.037Z,101360.88
2019-05-26T01:05:04.088Z,101357.49
2019-05-26T01:07:32.981Z,101352.43
2019-05-26T01:10:01.784Z,101350.79
2019-05-26T01:12:30.585Z,101342.29
2019-05-26T01:14:59.389Z,101345.23
2019-05-26T01:17:28.153Z,101347.31
2019-05-26T01:19:56.960Z,101349.72
2019-05-26T01:22:25.769Z,101341.09
2019-05-26T01:24:54.558Z,101339.77
2019-05-26T01:27:23.428Z,101335.98
2019-05-26T01:29:52.279Z,101336.61
2019-05-26T01:32:21.160Z,101333.13
2019-05-26T01:34:50.115Z,101337.38
2019-05-26T01:37:19.108Z,101336.08
2019-05-26T01:39:53.163Z,101326.00
2019-05-26T01:42:22.453Z,101322.42
2019-05-26T01:44:55.116Z,101325.74
2019-05-26T01:47:24.349Z,101319.10
2019-05-26T01:49:53.306Z,101317.63
2019-05-26T01:52:24.662Z,101313.58
2019-05-26T01:54:53.783Z,101314.73
2019-05-26T01:57:22.634Z,101319.86
2019-05-26T01:59:51.474Z,101317.61
2019-05-26T02:02:20.751Z,101312.09
2019-05-26T02:04:53.836Z,101311.87
2019-05-26T02:07:27.030Z,101309.16
2019-05-26T02:09:55.887Z,101311.19
2019-05-26T02:12:25.102Z,101304.73
2019-05-26T02:14:54.105Z,101306.22
2019-05-26T02:17:23.037Z,101302.65
2019-05-26T02:25:11.608Z,101306.14
2019-05-26T02:27:40.403Z,101293.97
2019-05-26T02:30:10.027Z,101290.95
2019-05-26T02:32:38.943Z,101290.23
2019-05-26T02:35:08.602Z,101287.98
2019-05-26T02:45:34.805Z,101266.81
2019-05-26T02:48:04.017Z,101262.48
2019-05-26T02:50:32.862Z,101255.47
2019-05-26T02:53:01.694Z,101256.09
2019-05-26T02:55:30.584Z,101256.02
2019-05-26T02:57:59.529Z,101249.33
2019-05-26T03:00:42.280Z,101253.23
2019-05-26T03:03:12.240Z,101253.91
2019-05-26T03:05:43.244Z,101254.30
2019-05-26T03:08:12.316Z,101248.94
2019-05-26T03:10:41.608Z,101252.91
2019-05-26T03:13:13.834Z,101253.37
2019-05-26T03:15:45.035Z,101253.14
2019-05-26T03:18:14.140Z,101246.75
2019-05-26T03:20:43.667Z,101252.97
2019-05-26T03:23:12.547Z,101250.78
2019-05-26T03:25:42.267Z,101248.77
2019-05-26T03:28:13.554Z,101245.97
2019-05-26T03:30:42.411Z,101246.70
2019-05-26T03:33:14.101Z,101248.97
2019-05-26T03:35:42.884Z,101239.73
2019-05-26T03:38:11.669Z,101234.40
2019-05-26T03:40:40.461Z,101234.84
2019-05-26T03:43:09.331Z,101231.64
2019-05-26T03:46:19.060Z,101223.25
2019-05-26T03:48:49.480Z,101222.08
2019-05-26T03:51:18.441Z,101215.24
2019-05-26T03:53:47.299Z,101209.87
2019-05-26T03:56:16.145Z,101208.00
2019-05-26T03:58:45.079Z,101201.95
2019-05-26T04:01:14.200Z,101200.63
2019-05-26T04:03:43.071Z,101197.72
2019-05-26T04:06:12.176Z,101195.64
2019-05-26T04:08:41.050Z,101191.88
2019-05-26T04:11:10.051Z,101183.02
2019-05-26T04:13:39.100Z,101184.47
2019-05-26T04:16:08.077Z,101175.55
2019-05-26T04:18:37.047Z,101176.59
2019-05-26T04:21:06.095Z,101172.73
2019-05-26T04:23:34.903Z,101168.42
2019-05-26T04:26:03.997Z,101163.18
2019-05-26T04:28:35.065Z,101164.91
2019-05-26T04:31:11.604Z,101162.46
2019-05-26T04:33:40.423Z,101164.82
2019-05-26T04:36:09.528Z,101162.48
2019-05-26T04:38:38.389Z,101156.28
2019-05-26T04:41:07.299Z,101150.08
2019-05-26T04:43:36.230Z,101152.84
2019-05-26T04:46:05.211Z,101150.92
2019-05-26T04:48:34.061Z,101153.41
2019-05-26T04:51:03.086Z,101154.92
2019-05-26T04:53:32.241Z,101150.97
2019-05-26T04:56:01.271Z,101147.75
2019-05-26T04:58:30.174Z,101151.52
2019-05-26T05:00:59.100Z,101150.41
2019-05-26T05:03:27.968Z,101141.31
2019-05-26T05:05:56.764Z,101136.59
2019-05-26T05:08:25.582Z,101140.83
2019-05-26T05:10:54.484Z,101135.80
2019-05-26T05:13:25.051Z,101129.89
2019-05-26T05:15:54.824Z,101133.87
2019-05-26T05:18:23.633Z,101129.53
2019-05-26T05:20:52.447Z,101130.25
2019-05-26T05:23:21.635Z,101121.31
2019-05-26T05:25:50.765Z,101112.17
2019-05-26T05:28:19.667Z,101116.70
2019-05-26T05:30:48.589Z,101114.05
2019-05-26T05:33:17.471Z,101104.97
2019-05-26T05:35:46.333Z,101104.70
2019-05-26T05:38:19.652Z,101100.37
2019-05-26T05:40:58.761Z,101093.78
2019-05-26T05:43:19.322Z,101083.18
2019-05-26T05:45:52.154Z,101090.42
2019-05-26T05:48:22.032Z,101084.31
2019-05-26T05:51:06.650Z,101093.00
2019-05-26T05:53:36.684Z,101084.17
2019-05-26T05:56:05.683Z,101088.30
2019-05-26T05:58:34.688Z,101087.42
2019-05-26T06:01:03.901Z,101085.55
2019-05-26T06:03:32.917Z,101077.09
2019-05-26T06:06:01.883Z,101076.91
2019-05-26T06:08:38.770Z,101079.45
2019-05-26T06:11:16.611Z,101072.34
2019-05-26T06:13:40.819Z,101073.91
2019-05-26T06:16:10.055Z,101072.75
2019-05-26T06:18:38.900Z,101078.79
2019-05-26T06:21:07.922Z,101063.45
2019-05-26T06:23:37.769Z,101058.58
2019-05-26T06:26:06.979Z,101032.02
2019-05-26T06:28:35.790Z,101051.42
2019-05-26T06:31:04.799Z,101035.49
2019-05-26T06:33:33.654Z,101038.44
2019-05-26T06:36:02.646Z,101038.44
2019-05-26T06:38:31.450Z,101043.90
2019-05-26T06:41:00.451Z,101043.90
2019-05-26T06:43:29.234Z,101041.44
2019-05-26T06:45:58.206Z,101031.58
2019-05-26T06:48:27.282Z,101031.13
2019-05-26T06:50:56.150Z,101024.63
2019-05-26T06:53:24.934Z,101030.37
2019-05-26T06:55:53.899Z,101024.31
2019-05-26T06:58:22.752Z,101031.86
2019-05-26T07:00:51.547Z,101031.86
2019-05-26T07:03:20.609Z,101033.19
2019-05-26T07:05:49.397Z,101021.10
2019-05-26T07:08:18.342Z,101030.41
2019-05-26T07:10:47.129Z,101014.61
2019-05-26T07:13:16.271Z,101020.48
2019-05-26T07:15:45.357Z,101025.12
2019-05-26T07:18:14.192Z,101016.55
2019-05-26T07:20:43.173Z,101012.81
2019-05-26T07:23:12.502Z,101014.38
2019-05-26T07:25:41.347Z,101020.31
2019-05-26T07:28:10.250Z,101009.16
2019-05-26T07:30:39.112Z,101020.30
2019-05-26T07:33:07.978Z,101010.37
2019-05-26T07:35:37.106Z,101011.57
2019-05-26T07:38:06.052Z,101013.39
2019-05-26T07:40:35.059Z,101010.95
2019-05-26T07:43:06.027Z,101011.81
2019-05-26T07:45:34.920Z,101009.41
2019-05-26T07:48:03.815Z,101003.09
2019-05-26T07:50:32.714Z,101003.48
2019-05-26T07:53:01.708Z,101007.59
2019-05-26T07:55:30.880Z,101008.31
2019-05-26T07:57:59.918Z,101007.11
2019-05-26T08:00:34.151Z,101004.69
2019-05-26T08:03:03.534Z,101000.10
2019-05-26T08:05:33.065Z,100996.72
2019-05-26T08:08:12.041Z,101001.80
2019-05-26T08:10:32.797Z,100994.52
2019-05-26T08:13:01.681Z,100995.24
2019-05-26T08:15:30.549Z,101000.58
2019-05-26T08:17:59.415Z,100989.96
2019-05-26T08:20:28.609Z,100984.03
2019-05-26T08:22:57.399Z,100989.28
2019-05-26T08:25:28.621Z,100976.94
2019-05-26T08:27:57.511Z,100982.00
2019-05-26T08:30:26.446Z,100967.57
2019-05-26T08:32:55.486Z,100974.08
2019-05-26T08:35:24.415Z,100947.72
2019-05-26T08:37:53.720Z,100968.49
2019-05-26T08:40:22.598Z,100957.17
2019-05-26T08:42:52.494Z,100961.83
2019-05-26T08:45:22.953Z,100952.84
2019-05-26T08:47:52.188Z,100950.81
2019-05-26T08:50:23.065Z,100953.06
2019-05-26T08:52:52.040Z,100951.16
2019-05-26T08:55:22.976Z,100944.49
2019-05-26T08:57:52.201Z,100942.77
2019-05-26T09:04:26.987Z,100941.90
2019-05-26T09:06:55.815Z,100941.20
2019-05-26T09:09:24.677Z,100932.44
2019-05-26T09:11:53.883Z,100925.30
2019-05-26T09:14:25.455Z,100929.66
2019-05-26T09:16:53.749Z,100934.54
2019-05-26T09:19:22.950Z,100920.62
2019-05-26T09:21:51.749Z,100934.11
2019-05-26T09:24:20.661Z,100934.42
2019-05-26T09:26:49.514Z,100932.37
2019-05-26T09:29:18.580Z,100933.58
2019-05-26T09:31:47.579Z,100931.95
2019-05-26T09:34:16.572Z,100929.37
2019-05-26T09:36:45.370Z,100927.61
2019-05-26T09:39:14.271Z,100931.23
2019-05-26T09:41:43.142Z,100937.18
2019-05-26T09:44:12.095Z,100934.52
2019-05-26T09:46:40.969Z,100938.38
2019-05-26T09:49:10.906Z,100934.78
2019-05-26T09:51:39.815Z,100933.19
2019-05-26T09:54:12.531Z,100933.33
2019-05-26T09:56:40.295Z,100931.95
2019-05-26T09:59:09.190Z,100931.02
2019-05-26T10:01:38.183Z,100927.33
2019-05-26T10:04:07.357Z,100928.08
2019-05-26T10:06:36.165Z,100929.84
2019-05-26T10:09:06.988Z,100930.98
2019-05-26T10:11:36.908Z,100929.08
2019-05-26T10:16:47.900Z,100937.67
2019-05-26T10:19:16.696Z,100939.26
2019-05-26T10:21:45.574Z,100943.88
2019-05-26T10:24:14.481Z,100936.12
2019-05-26T10:26:43.534Z,100943.50
2019-05-26T10:29:12.433Z,100937.69
2019-05-26T10:31:41.470Z,100949.67
2019-05-26T10:34:13.617Z,100942.88
2019-05-26T10:36:40.974Z,100936.00
2019-05-26T10:39:09.948Z,100938.28
2019-05-26T10:41:38.731Z,100943.25
2019-05-26T10:44:07.647Z,100929.83
2019-05-26T10:46:36.538Z,100935.74
2019-05-26T10:49:05.524Z,100921.00
2019-05-26T10:51:34.734Z,100926.34
2019-05-26T10:54:04.186Z,100928.88
2019-05-26T10:56:35.401Z,100933.11
2019-05-26T10:59:04.256Z,100923.42
2019-05-26T11:01:33.213Z,100921.83
2019-05-26T11:04:02.593Z,100919.66
2019-05-26T11:06:31.548Z,100918.20
2019-05-26T11:09:00.426Z,100915.34
2019-05-26T11:11:29.239Z,100919.67
2019-05-26T11:14:02.817Z,100918.73
2019-05-26T11:16:28.863Z,100918.34
2019-05-26T11:18:57.717Z,100912.53
2019-05-26T11:21:26.796Z,100913.62
2019-05-26T11:23:55.757Z,100911.58
2019-05-26T11:26:24.752Z,100913.86
2019-05-26T11:28:53.726Z,100899.72
2019-05-26T11:31:23.694Z,100897.80
2019-05-26T11:33:52.603Z,100903.60
2019-05-26T11:36:21.433Z,100897.42
2019-05-26T11:38:50.524Z,100887.02
2019-05-26T11:41:19.453Z,100890.39
2019-05-26T11:43:48.396Z,100887.73
2019-05-26T11:46:17.501Z,100872.25
2019-05-26T11:48:46.677Z,100875.12
2019-05-26T11:51:15.674Z,100867.07
2019-05-26T11:53:44.655Z,100860.59
2019-05-26T11:56:13.583Z,100856.72
2019-05-26T11:58:42.401Z,100851.56
2019-05-26T12:01:11.396Z,100851.31
2019-05-26T12:03:40.271Z,100854.00
2019-05-26T12:06:09.285Z,100849.13
2019-05-26T12:08:38.231Z,100853.09
2019-05-26T12:11:07.062Z,100845.98
2019-05-26T12:13:36.735Z,100847.88
2019-05-26T12:16:05.875Z,100841.38
2019-05-26T12:18:34.724Z,100839.88
2019-05-26T12:21:03.906Z,100839.00
2019-05-26T12:23:32.724Z,100836.87
2019-05-26T12:26:01.633Z,100839.11
2019-05-26T12:28:30.506Z,100829.95
2019-05-26T12:30:59.595Z,100828.36
2019-05-26T12:33:28.424Z,100822.85
2019-05-26T12:35:57.437Z,100823.44
2019-05-26T12:38:26.574Z,100827.78
2019-05-26T12:40:55.543Z,100820.66
2019-05-26T12:43:24.380Z,100811.55
2019-05-26T12:45:54.590Z,100811.83
2019-05-26T12:48:23.511Z,100817.50
2019-05-26T12:50:52.451Z,100800.51
2019-05-26T12:53:21.371Z,100795.58
2019-05-26T12:55:50.340Z,100790.27
2019-05-26T12:58:24.879Z,100795.98
2019-05-26T13:00:54.642Z,100786.82
2019-05-26T13:03:21.042Z,100785.22
2019-05-26T13:05:49.917Z,100781.14
2019-05-26T13:08:19.218Z,100785.16
2019-05-26T13:10:48.033Z,100784.31
2019-05-26T13:13:17.040Z,100779.49
2019-05-26T13:15:45.963Z,100776.94
2019-05-26T13:18:14.803Z,100776.37
2019-05-26T13:20:43.728Z,100769.59
2019-05-26T13:23:12.610Z,100766.27
2019-05-26T13:25:41.835Z,100767.95
2019-05-26T13:28:10.782Z,100767.42
2019-05-26T13:30:39.740Z,100762.53
2019-05-26T13:33:08.645Z,100769.27
2019-05-26T13:35:37.455Z,100765.22
2019-05-26T13:38:06.679Z,100777.78
2019-05-26T13:40:35.467Z,100764.82
2019-05-26T13:43:04.478Z,100767.50
2019-05-26T13:45:34.208Z,100767.42
2019-05-26T13:48:03.158Z,100758.65
2019-05-26T13:50:31.941Z,100757.76
2019-05-26T13:53:00.800Z,100751.96
2019-05-26T13:55:29.786Z,100741.19
2019-05-26T13:57:58.750Z,100743.34
2019-05-26T14:00:27.912Z,100742.84
2019-05-26T14:02:57.163Z,100740.34
2019-05-26T14:05:25.983Z,100744.19
2019-05-26T14:07:55.109Z,100738.70
2019-05-26T14:10:35.072Z,100733.73
2019-05-26T14:13:05.048Z,100731.95
2019-05-26T14:15:38.453Z,100731.23
2019-05-26T14:18:05.191Z,100732.59
2019-05-26T14:20:36.197Z,100729.75
2019-05-26T14:23:06.046Z,100725.19
2019-05-26T14:25:37.175Z,100729.75
2019-05-26T14:28:07.486Z,100730.34
2019-05-26T14:30:36.564Z,100731.94
2019-05-26T14:33:06.487Z,100728.19
2019-05-26T14:35:35.552Z,100732.47
2019-05-26T14:38:04.480Z,100727.43
2019-05-26T14:40:33.393Z,100726.67
2019-05-26T14:43:02.468Z,100718.16
2019-05-26T14:45:31.557Z,100721.67
2019-05-26T14:48:00.682Z,100726.98
2019-05-26T14:50:29.721Z,100721.58
2019-05-26T14:52:58.535Z,100726.34
2019-05-26T14:55:27.807Z,100744.00
2019-05-26T14:57:56.897Z,100727.00
2019-05-26T15:00:26.275Z,100732.80
2019-05-26T15:02:55.323Z,100719.31
2019-05-26T15:05:24.327Z,100723.02
2019-05-26T15:07:53.254Z,100713.83
2019-05-26T15:10:22.824Z,100712.59
2019-05-26T15:12:51.737Z,100712.26
2019-05-26T15:15:20.887Z,100705.89
2019-05-26T15:17:49.980Z,100704.22
2019-05-26T15:20:18.957Z,100707.52
2019-05-26T15:22:47.993Z,100702.16
2019-05-26T15:25:16.838Z,100703.16
2019-05-26T15:27:46.694Z,100706.17
2019-05-26T15:30:17.439Z,100699.64
2019-05-26T15:32:46.254Z,100696.97
2019-05-26T15:35:15.324Z,100692.72
2019-05-26T15:37:44.135Z,100692.63
2019-05-26T15:40:13.179Z,100687.47
2019-05-26T15:42:41.996Z,100688.22
2019-05-26T15:45:11.107Z,100674.66
2019-05-26T15:47:39.967Z,100666.28
2019-05-26T15:50:09.384Z,100679.22
2019-05-26T15:52:38.393Z,100671.17
2019-05-26T15:55:07.985Z,100660.79
2019-05-26T15:57:37.860Z,100655.47
2019-05-26T16:00:07.911Z,100650.60
2019-05-26T16:02:36.922Z,100647.08
2019-05-26T16:05:06.612Z,100626.27
2019-05-26T16:07:35.694Z,100636.30
2019-05-26T16:10:05.108Z,100636.33
2019-05-26T16:12:34.080Z,100626.78
2019-05-26T16:15:03.286Z,100613.87
2019-05-26T16:17:32.517Z,100621.28
2019-05-26T16:20:01.573Z,100617.79
2019-05-26T16:22:30.555Z,100612.93
2019-05-26T16:25:02.024Z,100599.52
2019-05-26T16:27:31.127Z,100596.48
2019-05-26T16:30:00.324Z,100590.78
2019-05-26T16:32:29.470Z,100594.97
2019-05-26T16:34:58.452Z,100586.92
2019-05-26T16:37:27.420Z,100587.77
2019-05-26T16:39:56.586Z,100594.41
2019-05-26T16:42:25.768Z,100585.70
2019-05-26T16:44:54.645Z,100591.03
2019-05-26T16:47:23.676Z,100594.68
2019-05-26T16:49:53.118Z,100600.67
2019-05-26T16:52:23.829Z,100600.13
2019-05-26T16:54:59.556Z,100610.67
2019-05-26T16:57:28.426Z,100606.24
2019-05-26T17:00:00.051Z,100608.05
2019-05-26T17:02:28.990Z,100624.73
2019-05-26T17:05:07.407Z,100620.14
2019-05-26T17:07:36.857Z,100617.81
2019-05-26T17:10:06.782Z,100625.59
2019-05-26T17:12:35.881Z,100618.48
2019-05-26T17:15:04.836Z,100615.70
2019-05-26T17:17:33.754Z,100621.88
2019-05-26T17:20:02.787Z,100620.02
2019-05-26T17:22:31.615Z,100622.28
2019-05-26T17:25:00.514Z,100629.05
2019-05-26T17:27:29.320Z,100631.33
2019-05-26T17:29:58.533Z,100638.25
2019-05-26T17:32:27.548Z,100642.48
2019-05-26T17:34:56.436Z,100650.05
2019-05-26T17:37:25.573Z,100643.55
2019-05-26T17:39:54.466Z,100649.12
2019-05-26T17:43:00.188Z,100650.41
2019-05-26T17:45:29.313Z,100653.00
2019-05-26T17:47:58.387Z,100658.98
2019-05-26T17:50:39.765Z,100657.86
2019-05-26T17:53:08.724Z,100661.30
2019-05-26T17:55:37.767Z,100660.53
2019-05-26T17:58:06.737Z,100661.17
2019-05-26T18:00:35.740Z,100660.83
2019-05-26T18:03:04.709Z,100652.05
2019-05-26T18:05:33.727Z,100650.78
2019-05-26T18:08:02.528Z,100656.48
2019-05-26T18:10:31.336Z,100658.17
2019-05-26T18:13:00.419Z,100658.43
2019-05-26T18:15:29.383Z,100657.33
2019-05-26T18:17:58.268Z,100656.75
2019-05-26T18:20:27.575Z,100655.07
2019-05-26T18:22:56.458Z,100645.73
2019-05-26T18:25:25.524Z,100653.04
2019-05-26T18:27:54.357Z,100650.28
2019-05-26T18:30:23.671Z,100651.21
2019-05-26T18:32:52.584Z,100647.91
2019-05-26T18:35:28.364Z,100652.55
2019-05-26T18:37:58.537Z,100645.04
2019-05-26T18:40:27.770Z,100650.28
2019-05-26T18:42:57.721Z,100650.42
2019-05-26T18:45:26.958Z,100651.32
2019-05-26T18:48:02.813Z,100640.20
2019-05-26T18:50:27.036Z,100642.72
2019-05-26T18:52:56.295Z,100649.88
2019-05-26T18:55:25.707Z,100654.63
2019-05-26T18:57:54.570Z,100647.58
2019-05-26T19:00:30.451Z,100646.04
2019-05-26T19:02:54.768Z,100644.91
2019-05-26T19:05:33.089Z,100637.55
2019-05-26T19:07:54.496Z,100636.47
2019-05-26T19:10:23.700Z,100640.06
2019-05-26T19:12:52.575Z,100636.70
2019-05-26T19:15:21.563Z,100623.57
2019-05-26T19:17:50.599Z,100637.09
2019-05-26T19:20:20.109Z,100638.92
2019-05-26T19:22:49.165Z,100640.09
2019-05-26T19:25:18.238Z,100631.75
2019-05-26T19:27:47.127Z,100630.67
2019-05-26T19:30:16.210Z,100632.50
2019-05-26T19:32:45.030Z,100633.81
2019-05-26T19:35:14.041Z,100622.80
2019-05-26T19:37:43.118Z,100624.42
2019-05-26T19:40:12.738Z,100623.09
2019-05-26T19:42:41.812Z,100632.91
2019-05-26T19:45:10.843Z,100630.34
2019-05-26T19:47:39.768Z,100623.63
2019-05-26T19:50:09.016Z,100619.91
2019-05-26T19:52:38.015Z,100623.48
2019-05-26T19:55:07.110Z,100612.97
2019-05-26T19:57:36.286Z,100618.02
2019-05-26T20:00:07.019Z,100603.55
2019-05-26T20:02:36.070Z,100606.80
2019-05-26T20:05:06.297Z,100602.01
2019-05-26T20:07:35.398Z,100598.50
2019-05-26T20:10:04.796Z,100604.88
2019-05-26T20:12:33.742Z,100591.94
2019-05-26T20:15:02.958Z,100586.47
2019-05-26T20:17:31.971Z,100587.11
2019-05-26T20:20:00.870Z,100581.54
2019-05-26T20:22:29.901Z,100578.88
2019-05-26T20:24:58.992Z,100584.55
2019-05-26T20:27:28.136Z,100586.97
2019-05-26T20:29:57.393Z,100576.21
2019-05-26T20:32:26.413Z,100581.28
2019-05-26T20:34:55.467Z,100576.23
2019-05-26T20:37:24.466Z,100577.78
2019-05-26T20:39:53.712Z,100577.64
2019-05-26T20:42:22.679Z,100572.16
2019-05-26T20:44:51.735Z,100581.05
2019-05-26T20:47:20.731Z,100580.45
2019-05-26T20:49:50.799Z,100578.18
